Time;durP1;ratioP1;P1;durP2;ratioP2;P2;SDS_P1;SDS_P2;PMS_P1;PMS_P2;Temp;Humidity;BMP_temperature;BMP_pressure;BME280_temperature;BME280_humidity;BME280_pressure;Samples;Min_cycle;Max_cycle;Signal;HPM_P1;HPM_P2
2022/12/11 00:01:32;;;;;;;3.70;3.40;;;;;;;-0.23;100.00;101112.84;5005738;28;20038;-62
2022/12/11 00:03:57;;;;;;;3.92;3.63;;;;;;;-0.21;100.00;101106.28;5007909;28;20742;-62
2022/12/11 00:06:23;;;;;;;3.70;3.40;;;;;;;-0.24;100.00;101111.16;5007255;28;20029;-62
2022/12/11 00:08:53;;;;;;;3.70;3.40;;;;;;;-0.23;100.00;101107.47;5007468;28;20037;-62
2022/12/11 00:11:18;;;;;;;3.65;3.35;;;;;;;-0.22;100.00;101107.28;5006595;28;20026;-63
2022/12/11 00:13:44;;;;;;;3.72;3.42;;;;;;;-0.20;100.00;101109.84;5006421;28;20515;-62
2022/12/11 00:16:09;;;;;;;3.75;3.45;;;;;;;-0.21;100.00;101106.28;5005975;28;20045;-63
2022/12/11 00:18:35;;;;;;;3.53;3.22;;;;;;;-0.20;100.00;101108.00;5006347;28;20042;-63
2022/12/11 00:21:06;;;;;;;3.63;3.33;;;;;;;-0.21;100.00;101103.59;5005919;28;20031;-63
2022/12/11 00:23:33;;;;;;;3.92;3.53;;;;;;;-0.23;100.00;101097.50;5007135;28;20034;-62
2022/12/11 00:25:58;;;;;;;3.92;3.63;;;;;;;-0.21;100.00;101100.03;5004527;28;20532;-62
2022/12/11 00:28:24;;;;;;;3.45;3.20;;;;;;;-0.18;100.00;101106.00;5006873;28;20076;-63
2022/12/11 00:30:49;;;;;;;3.55;3.25;;;;;;;-0.18;100.00;101105.16;5006551;28;20022;-63
2022/12/11 00:33:15;;;;;;;3.67;3.38;;;;;;;-0.16;100.00;101098.56;5017261;28;20141;-62
2022/12/11 00:35:46;;;;;;;3.72;3.40;;;;;;;-0.14;100.00;101106.53;5006026;28;20509;-63
2022/12/11 00:38:17;;;;;;;3.65;3.35;;;;;;;-0.17;100.00;101107.69;5005895;28;20054;-62
2022/12/11 00:40:43;;;;;;;3.83;3.42;;;;;;;-0.17;100.00;101101.44;5005248;28;20030;-63
2022/12/11 00:43:09;;;;;;;3.70;3.40;;;;;;;-0.18;100.00;101103.28;5005309;28;20042;-63
2022/12/11 00:45:40;;;;;;;3.58;3.28;;;;;;;-0.15;100.00;101107.53;5006856;28;20022;-62
2022/12/11 00:48:06;;;;;;;3.50;3.20;;;;;;;-0.17;100.00;101099.59;5004686;28;20046;-62
2022/12/11 00:50:32;;;;;;;3.58;3.30;;;;;;;-0.16;100.00;101095.88;5009827;28;20025;-62
2022/12/11 00:52:57;;;;;;;3.55;3.25;;;;;;;-0.14;100.00;101104.69;5010884;28;20030;-63
2022/12/11 00:55:23;;;;;;;3.53;3.22;;;;;;;-0.12;100.00;101093.72;5008292;28;20084;-63
2022/12/11 00:57:51;;;;;;;3.38;3.13;;;;;;;-0.13;100.00;101098.28;5009134;28;20033;-62
2022/12/11 01:00:16;;;;;;;3.45;3.15;;;;;;;-0.11;100.00;101093.56;5010811;28;20750;-63
2022/12/11 01:02:42;;;;;;;3.58;3.28;;;;;;;-0.13;100.00;101100.97;4993395;28;20116;-62
2022/12/11 01:05:08;;;;;;;3.38;3.10;;;;;;;-0.13;100.00;101090.19;5009736;28;20025;-62
2022/12/11 01:07:34;;;;;;;3.63;3.33;;;;;;;-0.11;100.00;101095.41;5008829;28;20034;-63
2022/12/11 01:12:43;;;;;;;3.47;3.17;;;;;;;-0.09;100.00;101096.13;5010619;28;20132;-63
2022/12/11 01:15:08;;;;;;;3.65;3.35;;;;;;;-0.09;100.00;101093.44;5010252;28;20101;-63
2022/12/11 01:17:33;;;;;;;3.10;2.83;;;;;;;-0.05;100.00;101094.78;5010805;28;20471;-63
2022/12/11 01:19:59;;;;;;;3.28;3.00;;;;;;;-0.08;100.00;101095.97;5009114;28;20435;-62
2022/12/11 01:22:24;;;;;;;3.45;3.15;;;;;;;-0.04;100.00;101100.06;5009435;28;20071;-62
2022/12/11 01:24:49;;;;;;;3.30;3.00;;;;;;;-0.06;100.00;101093.94;5009651;28;20626;-64
2022/12/11 01:27:15;;;;;;;3.25;2.95;;;;;;;-0.05;100.00;101101.06;5007104;28;20548;-62
2022/12/11 01:29:40;;;;;;;3.20;2.92;;;;;;;-0.04;100.00;101102.75;5009612;28;20038;-62
2022/12/11 01:32:05;;;;;;;3.30;3.00;;;;;;;-0.04;100.00;101105.44;4991671;28;20030;-64
2022/12/11 01:34:31;;;;;;;3.22;3.03;;;;;;;-0.01;100.00;101101.56;5009180;28;20037;-63
2022/12/11 01:36:56;;;;;;;3.20;3.00;;;;;;;-0.03;100.00;101101.75;5008763;28;20045;-63
2022/12/11 01:39:22;;;;;;;3.22;3.03;;;;;;;-0.02;100.00;101103.44;5009334;28;20030;-63
2022/12/11 01:41:47;;;;;;;3.05;2.85;;;;;;;0.01;100.00;101105.00;5006665;28;20584;-63
2022/12/11 01:44:12;;;;;;;3.30;3.00;;;;;;;0.02;100.00;101095.88;5009911;28;20033;-62
2022/12/11 01:46:37;;;;;;;2.87;2.67;;;;;;;0.03;100.00;101097.56;5009030;28;20045;-63
2022/12/11 01:49:06;;;;;;;3.03;2.83;;;;;;;0.04;100.00;101095.72;5008881;28;20825;-62
2022/12/11 01:51:37;;;;;;;2.95;2.75;;;;;;;0.05;100.00;101094.69;5005374;28;20397;-63
2022/12/11 01:54:07;;;;;;;3.10;2.80;;;;;;;0.06;100.00;101088.31;5008334;28;20116;-63
2022/12/11 01:56:34;;;;;;;3.20;3.00;;;;;;;0.07;100.00;101092.72;5008432;28;20037;-63
2022/12/11 01:59:06;;;;;;;2.97;2.75;;;;;;;0.10;100.00;101095.06;5009418;28;20026;-62
2022/12/11 02:01:37;;;;;;;2.95;2.75;;;;;;;0.08;100.00;101086.31;5007425;28;20044;-63
2022/12/11 02:04:03;;;;;;;2.80;2.60;;;;;;;0.10;100.00;101081.56;5008848;28;20034;-62
2022/12/11 02:06:34;;;;;;;3.00;2.80;;;;;;;0.10;100.00;101082.44;5008830;28;20029;-63
2022/12/11 02:09:00;;;;;;;3.00;2.80;;;;;;;0.12;100.00;101079.59;5008936;28;20041;-63
2022/12/11 02:11:37;;;;;;;2.70;2.50;;;;;;;0.11;100.00;101073.34;5008416;28;20045;-62
2022/12/11 02:14:12;;;;;;;2.70;2.50;;;;;;;0.12;100.00;101079.59;5055476;22;20045;-62
2022/12/11 02:16:43;;;;;;;2.90;2.70;;;;;;;0.13;100.00;101083.97;5000579;28;20045;-63
2022/12/11 02:19:29;;;;;;;2.90;2.70;;;;;;;0.14;100.00;101078.41;5008123;28;20058;-63
2022/12/11 02:21:56;;;;;;;2.60;2.40;;;;;;;0.13;100.00;101070.47;5007363;28;20030;-63
2022/12/11 02:24:54;;;;;;;2.47;2.33;;;;;;;0.16;100.00;101075.56;5008612;28;20034;-63
2022/12/11 02:27:30;;;;;;;2.50;2.33;;;;;;;0.16;100.00;101080.97;5005971;28;20460;-63
2022/12/11 02:30:12;;;;;;;2.70;2.50;;;;;;;0.18;100.00;101071.69;5006706;28;20092;-63
2022/12/11 02:32:57;;;;;;;2.60;2.40;;;;;;;0.18;100.00;101074.38;5008894;28;20052;-63
2022/12/11 02:35:48;;;;;;;2.38;2.28;;;;;;;0.16;100.00;101075.56;5007450;28;20021;-63
2022/12/11 02:38:17;;;;;;;2.40;2.20;;;;;;;0.17;100.00;101071.84;5007270;28;20034;-62
2022/12/11 02:40:45;;;;;;;2.40;2.30;;;;;;;0.16;100.00;101076.41;5006543;28;20129;-62
2022/12/11 02:43:14;;;;;;;2.30;2.10;;;;;;;0.17;100.00;101075.41;5007512;28;20080;-63
2022/12/11 02:45:41;;;;;;;2.33;2.22;;;;;;;0.15;100.00;101069.31;5008390;28;20022;-63
2022/12/11 02:48:09;;;;;;;2.30;2.20;;;;;;;0.18;100.00;101065.44;5008346;28;20048;-63
2022/12/11 02:50:36;;;;;;;;;;;;;;;0.24;100.00;101067.50;5007965;28;20428;-63
2022/12/11 02:53:04;;;;;;;2.30;2.20;;;;;;;0.20;100.00;101063.41;5008223;28;20348;-63
2022/12/11 02:55:31;;;;;;;;;;;;;;;0.23;100.00;101063.13;5007444;28;20065;-63
2022/12/11 02:58:12;;;;;;;2.58;2.38;;;;;;;0.19;100.00;101064.44;5006060;28;19918;-63
2022/12/11 03:00:37;;;;;;;2.30;2.20;;;;;;;0.17;100.00;101056.50;5007180;28;20485;-63
2022/12/11 03:03:03;;;;;;;2.30;2.20;;;;;;;0.18;100.00;101057.34;5008277;28;20036;-62
2022/12/11 03:05:29;;;;;;;2.30;2.20;;;;;;;0.17;100.00;101055.66;5008046;28;20033;-63
2022/12/11 03:07:55;;;;;;;2.30;2.10;;;;;;;0.17;100.00;101052.94;5007399;28;20190;-62
2022/12/11 03:10:21;;;;;;;2.20;2.10;;;;;;;0.18;100.00;101058.19;5007724;28;20026;-64
2022/12/11 03:12:51;;;;;;;2.30;2.10;;;;;;;0.18;100.00;101054.63;5008440;28;20076;-63
2022/12/11 03:15:19;;;;;;;2.20;2.10;;;;;;;0.17;100.00;101051.09;5007644;28;20046;-63
2022/12/11 03:17:50;;;;;;;;;;;;;;;0.20;100.00;101048.09;5006010;28;20128;-62
2022/12/11 03:20:16;;;;;;;2.20;2.08;;;;;;;0.17;100.00;101040.28;4991190;28;19968;-63
2022/12/11 03:22:58;;;;;;;2.10;2.00;;;;;;;0.18;100.00;101049.25;5008409;28;20058;-63
2022/12/11 03:25:32;;;;;;;2.10;2.00;;;;;;;0.16;100.00;101046.72;5006651;28;20260;-63
2022/12/11 03:28:26;;;;;;;2.15;2.05;;;;;;;0.18;100.00;101046.53;5006237;28;20029;-63
2022/12/11 03:30:52;;;;;;;1.90;1.80;;;;;;;0.16;100.00;101044.00;5005584;28;20065;-63
2022/12/11 03:33:44;;;;;;;1.85;1.75;;;;;;;0.20;100.00;101044.50;5007012;28;20034;-63
2022/12/11 03:36:13;;;;;;;2.17;2.08;;;;;;;0.19;100.00;101040.97;5006722;28;20038;-62
2022/12/11 03:38:48;;;;;;;2.00;1.90;;;;;;;0.18;100.00;101047.38;5006142;28;20034;-63
2022/12/11 03:41:17;;;;;;;2.00;1.90;;;;;;;0.18;100.00;101041.97;5005258;28;20112;-63
2022/12/11 03:43:44;;;;;;;1.90;1.80;;;;;;;0.19;100.00;101048.22;5007524;28;20069;-62
2022/12/11 03:46:11;;;;;;;2.10;2.00;;;;;;;0.17;100.00;101040.28;5006474;28;20342;-63
2022/12/11 03:48:40;;;;;;;1.90;1.80;;;;;;;0.18;100.00;101046.53;5006390;28;20018;-63
2022/12/11 03:51:06;;;;;;;1.90;1.80;;;;;;;0.19;100.00;101040.13;5005904;28;20050;-63
2022/12/11 03:53:34;;;;;;;2.00;1.90;;;;;;;0.22;100.00;101037.13;5007437;28;20063;-62
2022/12/11 03:56:02;;;;;;;2.00;1.90;;;;;;;0.19;100.00;101037.44;5006249;28;20037;-63
2022/12/11 03:58:28;;;;;;;1.80;1.70;;;;;;;0.19;100.00;101030.16;5006407;28;20103;-63
2022/12/11 04:00:54;;;;;;;1.95;1.85;;;;;;;0.28;100.00;101038.34;5005884;28;20460;-62
2022/12/11 04:03:19;;;;;;;1.88;1.77;;;;;;;0.20;100.00;101033.72;5007357;28;20384;-63
2022/12/11 04:05:50;;;;;;;1.80;1.70;;;;;;;0.19;100.00;101032.88;5006792;28;20088;-62
2022/12/11 04:08:19;;;;;;;1.70;1.60;;;;;;;0.17;100.00;101024.09;5006544;28;20109;-63
2022/12/11 04:10:44;;;;;;;1.50;1.50;;;;;;;0.16;100.00;101029.66;5006507;28;20420;-62
2022/12/11 04:13:10;;;;;;;1.50;1.50;;;;;;;0.16;100.00;101026.97;5006752;28;20072;-62
2022/12/11 04:15:36;;;;;;;1.60;1.60;;;;;;;0.14;100.00;101019.00;5005757;28;20052;-63
2022/12/11 04:26:18;;;;;;;1.50;1.50;;;;;;;0.14;100.00;101028.94;5008520;28;20048;-63
2022/12/11 04:28:45;;;;;;;1.40;1.40;;;;;;;0.14;100.00;101037.06;5011034;28;20073;-63
2022/12/11 04:31:12;;;;;;;1.40;1.40;;;;;;;0.17;100.00;101032.19;5009990;28;20040;-63
2022/12/11 04:33:37;;;;;;;1.30;1.30;;;;;;;0.15;100.00;101030.63;5011174;28;20034;-62
2022/12/11 04:36:03;;;;;;;1.30;1.30;;;;;;;0.14;100.00;101031.66;5009212;28;20021;-63
2022/12/11 04:38:28;;;;;;;1.40;1.40;;;;;;;0.12;100.00;101025.56;5010275;28;20037;-62
2022/12/11 04:40:58;;;;;;;1.40;1.40;;;;;;;0.14;100.00;101026.25;5008221;28;20069;-63
2022/12/11 04:43:24;;;;;;;1.40;1.40;;;;;;;0.12;100.00;101023.72;5008335;28;20044;-63
2022/12/11 04:45:49;;;;;;;1.30;1.30;;;;;;;0.15;100.00;101027.94;5002305;28;20065;-62
2022/12/11 04:48:14;;;;;;;1.40;1.40;;;;;;;0.15;100.00;101020.72;5008200;28;20029;-63
2022/12/11 04:50:40;;;;;;;1.30;1.30;;;;;;;0.20;100.00;101020.22;5010652;28;20467;-63
2022/12/11 04:53:05;;;;;;;1.30;1.30;;;;;;;0.17;100.00;101017.84;5010072;28;20128;-63
2022/12/11 04:55:30;;;;;;;1.40;1.40;;;;;;;0.17;100.00;101015.16;5008197;28;20026;-63
2022/12/11 04:57:55;;;;;;;1.40;1.40;;;;;;;0.14;100.00;101012.75;5010071;28;20465;-63
2022/12/11 05:00:21;;;;;;;1.40;1.40;;;;;;;0.15;100.00;101025.25;5010207;28;20344;-64
2022/12/11 05:02:46;;;;;;;1.20;1.20;;;;;;;0.15;100.00;101025.25;5011134;28;20393;-62
2022/12/11 05:05:12;;;;;;;1.23;1.23;;;;;;;0.13;100.00;101022.72;5008252;28;20464;-63
2022/12/11 05:07:38;;;;;;;1.20;1.20;;;;;;;0.13;100.00;101016.47;5009178;28;20041;-63
2022/12/11 05:10:04;;;;;;;1.25;1.25;;;;;;;0.13;100.00;101025.41;5008840;28;20036;-63
2022/12/11 05:12:31;;;;;;;1.00;1.00;;;;;;;0.12;100.00;101017.47;5010420;28;20030;-63
2022/12/11 05:14:56;;;;;;;1.20;1.20;;;;;;;0.12;100.00;101030.97;5008223;28;20065;-63
2022/12/11 05:17:21;;;;;;;1.33;1.27;;;;;;;0.12;100.00;101020.19;5009235;28;20034;-63
2022/12/11 05:19:48;;;;;;;1.20;1.20;;;;;;;0.13;100.00;101022.72;5008870;28;20113;-63
2022/12/11 05:22:15;;;;;;;1.30;1.30;;;;;;;0.14;100.00;101018.16;5009344;28;20038;-63
2022/12/11 05:24:41;;;;;;;1.20;1.20;;;;;;;0.14;100.00;101018.16;5006818;28;20136;-63
2022/12/11 05:27:06;;;;;;;1.15;1.15;;;;;;;0.17;100.00;101017.84;5009662;28;20116;-62
2022/12/11 05:29:31;;;;;;;1.30;1.30;;;;;;;0.17;100.00;101012.44;5010412;28;20106;-63
2022/12/11 05:31:56;;;;;;;1.20;1.20;;;;;;;0.19;100.00;101010.41;5007162;28;20018;-63
2022/12/11 05:34:22;;;;;;;1.20;1.20;;;;;;;0.19;100.00;101010.41;4999611;28;20053;-62
2022/12/11 05:36:47;;;;;;;1.20;1.20;;;;;;;0.17;100.00;100996.25;5006355;28;20112;-63
2022/12/11 05:39:12;;;;;;;1.30;1.30;;;;;;;0.17;100.00;101004.34;5009437;28;20030;-62
2022/12/11 05:41:38;;;;;;;1.27;1.27;;;;;;;0.18;100.00;101000.63;5009219;28;20084;-63
2022/12/11 05:44:03;;;;;;;1.30;1.30;;;;;;;0.17;100.00;100996.25;5008829;28;20061;-63
2022/12/11 05:46:29;;;;;;;1.20;1.20;;;;;;;0.21;100.00;100993.06;5008397;28;20037;-63
2022/12/11 05:48:58;;;;;;;1.20;1.20;;;;;;;0.18;100.00;100996.06;5009074;28;20029;-63
2022/12/11 05:51:24;;;;;;;1.30;1.30;;;;;;;0.19;100.00;101000.47;4990288;28;20059;-63
2022/12/11 05:53:51;;;;;;;1.20;1.20;;;;;;;0.19;100.00;101003.16;4998669;28;20595;-63
2022/12/11 05:56:19;;;;;;;1.20;1.20;;;;;;;0.20;100.00;101009.41;5006550;28;20384;-63
2022/12/11 05:58:46;;;;;;;1.30;1.30;;;;;;;0.23;100.00;101009.09;5010099;28;20018;-63
2022/12/11 06:01:18;;;;;;;1.20;1.20;;;;;;;0.20;100.00;101018.38;5008226;28;20029;-63
2022/12/11 06:03:44;;;;;;;1.15;1.15;;;;;;;0.20;100.00;101014.81;5005187;28;20469;-63
2022/12/11 06:06:09;;;;;;;1.23;1.23;;;;;;;0.23;100.00;101019.91;4997350;28;20033;-63
2022/12/11 06:08:35;;;;;;;1.10;1.10;;;;;;;0.22;100.00;101015.50;5009780;28;20457;-63
2022/12/11 06:11:00;;;;;;;1.20;1.20;;;;;;;0.20;100.00;101012.09;5004631;28;20030;-63
2022/12/11 06:13:26;;;;;;;1.20;1.20;;;;;;;0.20;100.00;101017.50;5009438;28;20053;-63
2022/12/11 06:15:51;;;;;;;1.17;1.17;;;;;;;0.19;100.00;101019.38;5008185;28;20042;-64
2022/12/11 06:18:17;;;;;;;1.30;1.30;;;;;;;0.18;100.00;101012.28;5008549;28;20117;-63
2022/12/11 06:20:42;;;;;;;1.20;1.20;;;;;;;0.20;100.00;101012.97;5007791;28;20049;-63
2022/12/11 06:23:07;;;;;;;1.30;1.30;;;;;;;0.21;100.00;101019.22;5007376;28;20115;-62
2022/12/11 06:25:34;;;;;;;1.25;1.23;;;;;;;0.19;100.00;101013.13;5007476;28;20033;-63
2022/12/11 06:27:59;;;;;;;1.20;1.20;;;;;;;0.19;100.00;101007.72;5006065;28;20108;-62
2022/12/11 06:30:24;;;;;;;1.20;1.20;;;;;;;0.21;100.00;101008.44;5008729;28;20113;-62
2022/12/11 06:32:50;;;;;;;1.20;1.20;;;;;;;0.21;100.00;101005.72;5009525;28;20036;-62
2022/12/11 06:35:15;;;;;;;1.20;1.20;;;;;;;0.22;100.00;101005.56;5006802;28;20026;-63
2022/12/11 06:37:40;;;;;;;1.20;1.20;;;;;;;0.24;100.00;101008.09;5007491;28;20057;-63
2022/12/11 06:40:08;;;;;;;1.20;1.20;;;;;;;0.23;100.00;101006.41;5006353;28;20457;-62
2022/12/11 06:42:34;;;;;;;1.20;1.20;;;;;;;0.25;100.00;101007.06;5008618;28;20026;-63
2022/12/11 06:44:59;;;;;;;1.20;1.20;;;;;;;0.25;100.00;101004.38;5008358;28;20030;-62
2022/12/11 06:47:28;;;;;;;1.20;1.20;;;;;;;0.25;100.00;101005.25;5008151;28;20037;-62
2022/12/11 06:49:54;;;;;;;1.20;1.20;;;;;;;0.27;100.00;101010.47;5005616;28;20392;-63
2022/12/11 06:52:21;;;;;;;1.20;1.20;;;;;;;0.27;100.00;101007.78;5008349;28;20036;-63
2022/12/11 06:54:46;;;;;;;1.10;1.10;;;;;;;0.28;100.00;101003.22;5007660;28;20040;-63
2022/12/11 06:57:11;;;;;;;1.20;1.20;;;;;;;0.28;100.00;100995.97;5007397;28;20029;-63
2022/12/11 06:59:37;;;;;;;1.20;1.20;;;;;;;0.28;100.00;100995.97;5006803;28;20441;-63
2022/12/11 07:02:02;;;;;;;1.20;1.20;;;;;;;0.28;100.00;100987.84;5006372;28;20041;-63
2022/12/11 07:04:29;;;;;;;1.20;1.20;;;;;;;0.28;100.00;100998.66;5006885;28;20037;-63
2022/12/11 07:06:54;;;;;;;1.30;1.30;;;;;;;0.30;100.00;100996.63;5005308;28;20033;-63
2022/12/11 07:09:21;;;;;;;1.10;1.10;;;;;;;0.32;100.00;100999.19;5007519;28;20128;-63
2022/12/11 07:11:49;;;;;;;1.20;1.20;;;;;;;0.32;100.00;101000.03;5007490;28;20040;-63
2022/12/11 07:14:14;;;;;;;1.20;1.20;;;;;;;0.35;100.00;100997.00;4995881;28;20100;-62
2022/12/11 07:16:39;;;;;;;1.25;1.25;;;;;;;0.35;100.00;101004.25;5000144;28;20034;-63
2022/12/11 07:19:04;;;;;;;1.23;1.23;;;;;;;0.35;100.00;101012.38;5007071;28;20034;-63
2022/12/11 07:21:30;;;;;;;1.20;1.20;;;;;;;0.34;100.00;101006.13;5007256;28;20068;-62
2022/12/11 07:23:55;;;;;;;1.15;1.15;;;;;;;0.35;100.00;101015.06;5004746;28;20025;-63
2022/12/11 07:26:21;;;;;;;1.20;1.20;;;;;;;0.35;100.00;101021.31;5007806;28;20365;-64
2022/12/11 07:28:47;;;;;;;1.30;1.30;;;;;;;0.36;100.00;101022.19;5005664;28;20464;-63
2022/12/11 07:31:17;;;;;;;1.20;1.20;;;;;;;0.37;100.00;101027.41;5004846;28;20030;-62
2022/12/11 07:33:43;;;;;;;1.30;1.30;;;;;;;0.38;100.00;101026.41;5006766;28;20030;-63
2022/12/11 07:36:11;;;;;;;1.20;1.20;;;;;;;0.40;100.00;101023.53;5010145;28;20413;-63
2022/12/11 07:38:37;;;;;;;1.27;1.27;;;;;;;0.40;100.00;101031.63;5005523;28;20101;-63
2022/12/11 07:41:09;;;;;;;1.30;1.30;;;;;;;0.41;100.00;101026.09;5006330;28;20022;-62
2022/12/11 07:43:35;;;;;;;1.20;1.20;;;;;;;0.41;100.00;101022.56;5008251;28;20021;-63
2022/12/11 07:46:09;;;;;;;1.20;1.20;;;;;;;0.42;100.00;101025.09;5005813;28;20072;-63
2022/12/11 07:48:36;;;;;;;1.30;1.30;;;;;;;0.44;100.00;101027.63;5007589;28;20100;-63
2022/12/11 07:51:16;;;;;;;1.20;1.20;;;;;;;0.43;100.00;101024.06;4998124;28;20054;-63
2022/12/11 07:53:42;;;;;;;1.30;1.30;;;;;;;0.42;100.00;101022.38;4988094;28;20358;-62
2022/12/11 07:56:07;;;;;;;1.30;1.30;;;;;;;0.40;100.00;101023.53;4986881;28;20034;-63
2022/12/11 07:58:33;;;;;;;1.30;1.30;;;;;;;0.41;100.00;101026.09;4988239;28;20034;-63
2022/12/11 08:00:59;;;;;;;1.20;1.20;;;;;;;0.39;100.00;101022.69;4987445;28;20125;-63
2022/12/11 08:03:24;;;;;;;1.30;1.30;;;;;;;0.40;100.00;101016.28;4995411;28;20450;-63
2022/12/11 08:05:51;;;;;;;1.30;1.30;;;;;;;0.40;100.00;101018.97;5007708;28;20072;-63
2022/12/11 08:08:17;;;;;;;1.30;1.30;;;;;;;0.40;100.00;101024.38;5007906;28;20029;-63
2022/12/11 08:10:43;;;;;;;1.23;1.23;;;;;;;0.42;100.00;101018.84;5005322;28;20030;-64
2022/12/11 08:13:08;;;;;;;1.30;1.30;;;;;;;0.41;100.00;101014.44;5005225;28;20108;-63
2022/12/11 08:15:34;;;;;;;1.30;1.30;;;;;;;0.41;100.00;101015.28;5007346;28;20117;-63
2022/12/11 08:18:00;;;;;;;1.23;1.23;;;;;;;0.45;100.00;101016.63;5006420;28;20033;-63
2022/12/11 08:20:25;;;;;;;1.30;1.30;;;;;;;0.44;100.00;101023.06;5015728;28;20025;-63
2022/12/11 08:22:50;;;;;;;1.38;1.38;;;;;;;0.46;100.00;101022.91;5022156;28;20042;-65
2022/12/11 08:25:16;;;;;;;1.30;1.30;;;;;;;0.47;100.00;101017.34;5006041;28;20757;-64
2022/12/11 08:27:41;;;;;;;1.30;1.30;;;;;;;0.47;100.00;101016.50;5007443;28;20045;-62
2022/12/11 08:30:07;;;;;;;1.30;1.30;;;;;;;0.48;100.00;101015.50;5006959;28;20463;-63
2022/12/11 08:32:33;;;;;;;1.30;1.30;;;;;;;0.48;100.00;101021.72;5007268;28;20516;-63
2022/12/11 08:34:58;;;;;;;1.40;1.40;;;;;;;0.51;100.00;101026.00;5003112;28;20018;-63
2022/12/11 08:37:23;;;;;;;1.30;1.30;;;;;;;0.52;100.00;101022.28;5007652;28;20113;-63
2022/12/11 08:39:49;;;;;;;1.30;1.30;;;;;;;0.51;100.00;101017.88;5006233;28;20029;-63
2022/12/11 08:42:14;;;;;;;1.40;1.40;;;;;;;0.52;100.00;101024.97;5005104;28;20128;-63
2022/12/11 08:44:40;;;;;;;1.30;1.30;;;;;;;0.57;100.00;101019.94;5005586;28;20030;-63
2022/12/11 08:47:08;;;;;;;1.30;1.30;;;;;;;0.52;100.00;101023.13;5006563;28;20030;-63
2022/12/11 08:49:34;;;;;;;1.40;1.40;;;;;;;0.51;100.00;101026.00;5005996;28;20073;-63
2022/12/11 08:51:59;;;;;;;1.40;1.40;;;;;;;0.50;100.00;101022.41;5004625;28;20041;-63
2022/12/11 08:54:24;;;;;;;1.40;1.40;;;;;;;0.52;100.00;101015.00;5002900;28;20018;-63
2022/12/11 08:56:50;;;;;;;1.40;1.40;;;;;;;0.54;100.00;101011.28;5002346;28;20756;-63
2022/12/11 08:59:17;;;;;;;1.60;1.50;;;;;;;0.54;100.00;101014.00;5003016;28;20052;-62
2022/12/11 09:01:42;;;;;;;1.60;1.50;;;;;;;0.54;100.00;101003.19;5000941;28;20034;-63
2022/12/11 09:04:07;;;;;;;1.35;1.35;;;;;;;0.56;100.00;100998.44;4996472;28;20092;-63
2022/12/11 09:06:33;;;;;;;1.40;1.40;;;;;;;0.57;100.00;101010.97;4997467;28;20461;-63
2022/12/11 09:08:59;;;;;;;1.40;1.40;;;;;;;0.58;100.00;101009.97;5003284;28;20076;-62
2022/12/11 09:11:28;;;;;;;1.55;1.48;;;;;;;0.59;100.00;101006.25;5008585;28;20025;-62
2022/12/11 09:13:54;;;;;;;1.40;1.40;;;;;;;0.60;100.00;101002.53;5010483;28;20025;-63
2022/12/11 09:16:22;;;;;;;1.60;1.50;;;;;;;0.60;100.00;101005.22;5009282;28;20558;-63
2022/12/11 09:18:49;;;;;;;1.50;1.50;;;;;;;0.61;100.00;101004.22;5011205;28;20379;-63
2022/12/11 09:21:20;;;;;;;1.40;1.40;;;;;;;0.61;100.00;101004.22;4992436;28;20396;-63
2022/12/11 09:23:45;;;;;;;1.45;1.42;;;;;;;0.60;100.00;101002.53;5007461;28;20034;-63
2022/12/11 09:26:13;;;;;;;1.58;1.50;;;;;;;0.63;100.00;101005.75;5009891;28;20183;-63
2022/12/11 09:28:39;;;;;;;1.63;1.52;;;;;;;0.61;100.00;101001.50;5010303;28;20026;-63
2022/12/11 09:31:16;;;;;;;1.50;1.50;;;;;;;0.62;100.00;101008.63;5006977;28;20366;-62
2022/12/11 09:33:42;;;;;;;1.60;1.50;;;;;;;0.61;100.00;101015.03;4990785;28;20129;-62
2022/12/11 09:36:08;;;;;;;1.60;1.50;;;;;;;0.60;100.00;101007.94;4998884;28;20029;-63
2022/12/11 09:38:35;;;;;;;1.55;1.50;;;;;;;0.61;100.00;101005.09;5009523;28;20149;-62
2022/12/11 09:41:01;;;;;;;1.52;1.52;;;;;;;0.57;100.00;101006.41;5009904;28;20061;-63
2022/12/11 09:43:44;;;;;;;1.52;1.52;;;;;;;0.61;100.00;101017.72;5009909;28;20120;-62
2022/12/11 09:46:13;;;;;;;1.58;1.48;;;;;;;0.59;100.00;101017.06;5007101;28;20176;-62
2022/12/11 09:48:42;;;;;;;1.50;1.50;;;;;;;0.58;100.00;101007.25;5009919;28;20068;-62
2022/12/11 09:51:18;;;;;;;1.45;1.45;;;;;;;0.61;100.00;100998.81;5009847;28;20369;-63
2022/12/11 09:53:44;;;;;;;1.60;1.50;;;;;;;0.60;100.00;101002.53;5004817;28;20030;-62
2022/12/11 09:56:24;;;;;;;1.60;1.50;;;;;;;0.62;100.00;101003.22;4992304;28;20033;-62
2022/12/11 09:59:00;;;;;;;1.50;1.50;;;;;;;0.64;100.00;101003.91;5010226;28;20022;-62
2022/12/11 10:01:44;;;;;;;1.65;1.55;;;;;;;0.67;100.00;101000.88;5010278;28;20404;-62
2022/12/11 10:04:48;;;;;;;1.65;1.55;;;;;;;0.70;100.00;100995.97;5009690;28;20025;-62
2022/12/11 10:07:21;;;;;;;1.58;1.50;;;;;;;0.69;100.00;100996.16;4996957;28;20050;-63
2022/12/11 10:10:01;;;;;;;1.50;1.50;;;;;;;0.67;100.00;100995.47;5008373;28;20038;-63
2022/12/11 10:12:51;;;;;;;1.67;1.58;;;;;;;0.65;100.00;100994.78;5005257;28;20553;-63
2022/12/11 10:15:19;;;;;;;1.63;1.52;;;;;;;0.62;100.00;101006.78;4992289;28;20051;-62
2022/12/11 10:17:45;;;;;;;;;;;;;;;0.78;100.00;101008.69;5009768;28;20049;-63
2022/12/11 10:20:14;;;;;;;1.73;1.63;;;;;;;0.65;100.00;100997.47;5009162;28;20106;-62
2022/12/11 10:22:39;;;;;;;1.70;1.60;;;;;;;0.68;100.00;100989.06;5010000;28;20033;-63
2022/12/11 10:25:12;;;;;;;1.80;1.70;;;;;;;0.69;100.00;100990.75;5005531;28;20030;-63
2022/12/11 10:27:39;;;;;;;1.90;1.80;;;;;;;0.71;100.00;100988.72;5009576;28;20112;-63
2022/12/11 10:30:18;;;;;;;1.67;1.60;;;;;;;0.73;100.00;100982.16;5008078;28;20032;-63
2022/12/11 10:33:01;;;;;;;1.70;1.60;;;;;;;0.74;100.00;100986.53;5009246;28;20030;-63
2022/12/11 10:35:52;;;;;;;1.67;1.60;;;;;;;0.76;100.00;100986.38;5007528;28;20018;-63
2022/12/11 10:38:26;;;;;;;1.73;1.63;;;;;;;0.82;100.00;100990.31;5009203;28;20032;-63
2022/12/11 10:40:58;;;;;;;1.75;1.67;;;;;;;0.84;100.00;100986.41;5006440;28;20061;-62
2022/12/11 10:43:45;;;;;;;1.70;1.60;;;;;;;0.82;100.00;100985.75;5008542;28;20484;-63
2022/12/11 10:46:23;;;;;;;1.70;1.60;;;;;;;0.84;100.00;100988.28;5003117;28;20049;-63
2022/12/11 10:48:52;;;;;;;2.00;1.90;;;;;;;0.86;100.00;100981.66;5007376;28;20500;-63
2022/12/11 10:51:20;;;;;;;1.70;1.60;;;;;;;0.88;100.00;100976.97;4998237;28;20029;-63
2022/12/11 10:53:57;;;;;;;1.85;1.75;;;;;;;0.93;100.00;100980.03;5005490;28;20500;-63
2022/12/11 10:56:27;;;;;;;1.70;1.60;;;;;;;0.88;100.00;100973.41;5005030;28;20433;-63
2022/12/11 10:58:54;;;;;;;1.70;1.63;;;;;;;0.88;100.00;100973.41;5008581;28;20049;-63
2022/12/11 11:01:23;;;;;;;1.97;1.87;;;;;;;0.87;100.00;100972.56;5007467;28;20038;-63
2022/12/11 11:04:00;;;;;;;1.70;1.60;;;;;;;0.88;100.00;100973.41;5008048;28;20335;-63
2022/12/11 11:06:26;;;;;;;1.80;1.70;;;;;;;0.84;100.00;100972.91;5003143;28;20049;-63
2022/12/11 11:08:57;;;;;;;1.80;1.70;;;;;;;0.82;100.00;100965.97;5001356;28;20106;-63
2022/12/11 11:11:35;;;;;;;1.70;1.60;;;;;;;0.79;100.00;100961.72;5006742;28;20064;-64
2022/12/11 11:14:16;;;;;;;1.77;1.67;;;;;;;0.81;100.00;100962.41;5006615;28;20030;-63
2022/12/11 11:16:44;;;;;;;1.70;1.60;;;;;;;0.81;100.00;100966.97;5006534;28;20026;-63
2022/12/11 11:19:28;;;;;;;1.67;1.58;;;;;;;0.85;100.00;100957.50;5007707;28;20033;-63
2022/12/11 11:22:00;;;;;;;1.70;1.60;;;;;;;0.88;100.00;100966.16;4996758;28;20052;-64
2022/12/11 11:24:25;;;;;;;1.80;1.70;;;;;;;0.91;100.00;100962.25;4988150;28;20026;-63
2022/12/11 11:26:51;;;;;;;1.70;1.60;;;;;;;0.94;100.00;100968.19;5006055;28;20443;-64
2022/12/11 11:29:33;;;;;;;1.70;1.60;;;;;;;0.95;100.00;100963.63;5008750;28;20609;-63
2022/12/11 11:32:17;;;;;;;1.55;1.45;;;;;;;0.94;100.00;100968.19;5007906;28;20040;-63
2022/12/11 11:34:42;;;;;;;1.70;1.60;;;;;;;0.90;100.00;100964.13;5006273;28;20033;-63
2022/12/11 11:37:23;;;;;;;1.80;1.70;;;;;;;0.88;100.00;100958.03;5005486;28;20030;-62
2022/12/11 11:39:54;;;;;;;1.73;1.63;;;;;;;0.88;100.00;100960.75;5007853;28;20487;-63
2022/12/11 11:42:44;;;;;;;1.80;1.70;;;;;;;0.89;100.00;100958.88;5004428;28;20075;-63